createdAt,value
2023-04-17T00:01:07.413Z,102639.81
2023-04-17T00:03:14.024Z,102639.81
2023-04-17T00:05:16.885Z,102642.47
2023-04-17T00:07:22.828Z,102645.97
2023-04-17T00:09:24.383Z,102642.47
2023-04-17T00:11:26.374Z,102641.59
2023-04-17T00:13:27.841Z,102644.22
2023-04-17T00:15:29.467Z,102640.69
2023-04-17T00:17:31.040Z,102645.09
2023-04-17T00:19:32.600Z,102643.31
2023-04-17T00:21:34.053Z,102636.28
2023-04-17T00:23:35.593Z,102638.91
2023-04-17T00:25:37.028Z,102643.31
2023-04-17T00:27:38.629Z,102638.03
2023-04-17T00:29:40.145Z,102633.66
2023-04-17T00:31:41.687Z,102627.50
2023-04-17T00:33:43.215Z,102635.41
2023-04-17T00:35:44.736Z,102634.50
2023-04-17T00:37:48.166Z,102629.25
2023-04-17T00:39:49.699Z,102631.00
2023-04-17T00:41:51.158Z,102628.34
2023-04-17T00:43:52.635Z,102633.63
2023-04-17T00:45:54.501Z,102634.50
2023-04-17T00:47:58.751Z,102638.91
2023-04-17T00:50:00.451Z,102632.75
2023-04-17T00:52:02.714Z,102637.13
2023-04-17T00:54:04.495Z,102631.88
2023-04-17T00:56:06.797Z,102631.88
2023-04-17T00:58:09.106Z,102629.22
2023-04-17T01:00:11.415Z,102630.09
2023-04-17T01:02:13.471Z,102635.38
2023-04-17T01:04:15.155Z,102629.22
2023-04-17T01:06:16.899Z,102637.13
2023-04-17T01:08:19.330Z,102634.50
2023-04-17T01:10:21.008Z,102630.97
2023-04-17T01:12:24.443Z,102631.84
2023-04-17T01:14:25.911Z,102636.22
2023-04-17T01:16:30.358Z,102631.84
2023-04-17T01:18:31.826Z,102629.19
2023-04-17T01:20:34.173Z,102633.56
2023-04-17T01:22:35.920Z,102631.81
2023-04-17T01:24:37.777Z,102628.31
2023-04-17T01:26:39.905Z,102634.44
2023-04-17T01:28:41.420Z,102638.84
2023-04-17T01:30:42.982Z,102630.91
2023-04-17T01:32:44.532Z,102621.25
2023-04-17T01:34:46.141Z,102630.91
2023-04-17T01:36:47.818Z,102633.56
2023-04-17T01:38:49.337Z,102630.91
2023-04-17T01:40:51.403Z,102631.78
2023-04-17T01:42:52.953Z,102637.06
2023-04-17T01:44:54.468Z,102633.50
2023-04-17T01:46:56.583Z,102644.03
2023-04-17T01:48:58.076Z,102628.22
2023-04-17T01:50:59.830Z,102631.72
2023-04-17T01:53:01.328Z,102625.56
2023-04-17T01:55:04.200Z,102638.75
2023-04-17T01:57:05.699Z,102645.75
2023-04-17T01:59:07.184Z,102635.22
2023-04-17T02:01:08.667Z,102634.34
2023-04-17T02:03:10.248Z,102635.22
2023-04-17T02:05:11.840Z,102635.19
2023-04-17T02:07:13.333Z,102637.81
2023-04-17T02:09:14.785Z,102638.69
2023-04-17T02:11:16.330Z,102639.56
2023-04-17T02:13:17.846Z,102641.31
2023-04-17T02:15:19.413Z,102641.31
2023-04-17T02:17:20.990Z,102643.03
2023-04-17T02:19:22.814Z,102639.53
2023-04-17T02:21:24.386Z,102642.16
2023-04-17T02:23:26.222Z,102637.75
2023-04-17T02:25:28.452Z,102638.63
2023-04-17T02:27:30.026Z,102638.63
2023-04-17T02:29:31.626Z,102629.84
2023-04-17T02:31:33.428Z,102637.75
2023-04-17T02:33:36.821Z,102635.13
2023-04-17T02:35:38.368Z,102633.34
2023-04-17T02:37:40.103Z,102635.97
2023-04-17T02:39:41.636Z,102647.38
2023-04-17T02:41:43.113Z,102643.88
2023-04-17T02:43:44.662Z,102638.59
2023-04-17T02:45:46.152Z,102642.97
2023-04-17T02:47:48.231Z,102643.84
2023-04-17T02:49:49.786Z,102645.56
2023-04-17T02:51:51.561Z,102639.44
2023-04-17T02:53:53.253Z,102646.44
2023-04-17T02:55:55.901Z,102648.19
2023-04-17T02:57:57.412Z,102648.19
2023-04-17T02:59:58.961Z,102656.06
2023-04-17T03:02:00.562Z,102657.81
2023-04-17T03:04:02.372Z,102648.13
2023-04-17T03:06:04.240Z,102655.97
2023-04-17T03:08:06.518Z,102653.34
2023-04-17T03:10:09.395Z,102653.31
2023-04-17T03:12:10.938Z,102656.81
2023-04-17T03:14:12.420Z,102660.31
2023-04-17T03:16:14.088Z,102666.44
2023-04-17T03:18:15.811Z,102662.91
2023-04-17T03:20:17.904Z,102661.13
2023-04-17T03:22:19.442Z,102663.75
2023-04-17T03:24:21.150Z,102669.88
2023-04-17T03:26:22.703Z,102663.72
2023-04-17T03:28:24.349Z,102666.34
2023-04-17T03:30:25.822Z,102663.69
2023-04-17T03:32:27.307Z,102670.72
2023-04-17T03:34:29.126Z,102676.84
2023-04-17T03:36:30.955Z,102663.69
2023-04-17T03:38:33.189Z,102674.22
2023-04-17T03:40:35.390Z,102676.81
2023-04-17T03:42:36.873Z,102676.81
2023-04-17T03:44:38.329Z,102678.56
2023-04-17T03:46:39.911Z,102679.44
2023-04-17T03:48:41.352Z,102676.78
2023-04-17T03:50:42.916Z,102680.28
2023-04-17T03:52:44.583Z,102678.53
2023-04-17T03:54:48.892Z,102678.53
2023-04-17T03:56:50.401Z,102680.28
2023-04-17T03:58:51.920Z,102680.25
2023-04-17T04:00:55.592Z,102682.00
2023-04-17T04:02:57.223Z,102679.38
2023-04-17T04:04:58.917Z,102677.56
2023-04-17T04:07:01.547Z,102682.81
2023-04-17T04:09:03.583Z,102684.56
2023-04-17T04:11:05.164Z,102677.56
2023-04-17T04:13:06.613Z,102681.03
2023-04-17T04:15:08.718Z,102683.69
2023-04-17T04:17:10.207Z,102690.69
2023-04-17T04:19:11.940Z,102697.69
2023-04-17T04:21:13.733Z,102700.34
2023-04-17T04:23:16.805Z,102696.81
2023-04-17T04:25:18.469Z,102705.56
2023-04-17T04:27:22.693Z,102708.19
2023-04-17T04:29:25.627Z,102712.50
2023-04-17T04:31:29.701Z,102711.59
2023-04-17T04:33:31.350Z,102708.06
2023-04-17T04:35:32.854Z,102709.84
2023-04-17T04:37:34.336Z,102710.72
2023-04-17T04:39:38.034Z,102706.31
2023-04-17T04:41:45.817Z,102707.19
2023-04-17T04:43:47.291Z,102713.34
2023-04-17T04:45:48.788Z,102708.06
2023-04-17T04:47:50.331Z,102718.59
2023-04-17T04:49:52.087Z,102720.31
2023-04-17T04:51:53.606Z,102710.66
2023-04-17T04:53:55.737Z,102713.28
2023-04-17T04:55:57.267Z,102721.19
2023-04-17T04:57:58.794Z,102722.03
2023-04-17T05:00:00.334Z,102719.41
2023-04-17T05:02:01.970Z,102725.56
2023-04-17T05:04:03.840Z,102726.44
2023-04-17T05:06:06.027Z,102722.94
2023-04-17T05:08:07.473Z,102726.44
2023-04-17T05:10:09.399Z,102730.84
2023-04-17T05:12:10.954Z,102732.59
2023-04-17T05:14:12.422Z,102730.81
2023-04-17T05:16:13.950Z,102743.09
2023-04-17T05:18:15.530Z,102735.22
2023-04-17T05:20:17.096Z,102739.63
2023-04-17T05:22:18.601Z,102735.22
2023-04-17T05:24:20.429Z,102743.16
2023-04-17T05:26:22.247Z,102740.50
2023-04-17T05:28:23.892Z,102744.00
2023-04-17T05:30:25.394Z,102750.19
2023-04-17T05:32:26.907Z,102747.56
2023-04-17T05:34:28.397Z,102745.84
2023-04-17T05:36:31.581Z,102760.81
2023-04-17T05:38:33.132Z,102756.44
2023-04-17T05:40:34.819Z,102754.72
2023-04-17T05:42:36.560Z,102753.00
2023-04-17T05:44:38.034Z,102753.03
2023-04-17T05:46:39.612Z,102757.44
2023-04-17T05:48:41.179Z,102760.97
2023-04-17T05:50:42.657Z,102756.63
2023-04-17T05:52:44.244Z,102752.28
2023-04-17T05:54:45.850Z,102756.69
2023-04-17T05:56:47.517Z,102759.38
2023-04-17T05:58:48.960Z,102761.19
2023-04-17T06:00:50.835Z,102760.34
2023-04-17T06:02:52.473Z,102751.59
2023-04-17T06:04:54.162Z,102768.31
2023-04-17T06:06:55.852Z,102767.47
2023-04-17T06:08:57.570Z,102771.91
2023-04-17T06:10:59.042Z,102773.69
2023-04-17T06:13:00.702Z,102771.97
2023-04-17T06:15:02.302Z,102763.22
2023-04-17T06:17:03.885Z,102769.41
2023-04-17T06:19:05.525Z,102768.56
2023-04-17T06:21:07.836Z,102773.00
2023-04-17T06:23:09.301Z,102780.97
2023-04-17T06:25:10.772Z,102776.59
2023-04-17T06:27:12.281Z,102777.50
2023-04-17T06:29:15.493Z,102781.09
2023-04-17T06:31:17.106Z,102779.38
2023-04-17T06:33:18.598Z,102781.19
2023-04-17T06:35:20.440Z,102778.56
2023-04-17T06:37:21.901Z,102782.13
2023-04-17T06:39:23.327Z,102783.00
2023-04-17T06:41:24.764Z,102787.44
2023-04-17T06:43:26.258Z,102789.19
2023-04-17T06:45:27.697Z,102791.00
2023-04-17T06:47:29.304Z,102791.88
2023-04-17T06:49:33.930Z,102798.94
2023-04-17T06:51:35.394Z,102789.31
2023-04-17T06:53:36.915Z,102799.94
2023-04-17T06:55:38.394Z,102794.72
2023-04-17T06:57:39.873Z,102798.25
2023-04-17T06:59:41.356Z,102799.16
2023-04-17T07:01:42.830Z,102802.69
2023-04-17T07:03:44.618Z,102808.00
2023-04-17T07:05:46.526Z,102816.81
2023-04-17T07:07:48.193Z,102810.69
2023-04-17T07:09:49.756Z,102809.81
2023-04-17T07:11:51.465Z,102812.47
2023-04-17T07:13:52.944Z,102817.84
2023-04-17T07:15:55.576Z,102813.44
2023-04-17T07:17:57.203Z,102820.50
2023-04-17T07:19:58.732Z,102824.06
2023-04-17T07:22:00.321Z,102820.59
2023-04-17T07:24:01.789Z,102819.75
2023-04-17T07:26:03.325Z,102827.72
2023-04-17T07:28:05.385Z,102819.84
2023-04-17T07:30:08.209Z,102830.44
2023-04-17T07:32:09.712Z,102831.34
2023-04-17T07:34:11.408Z,102832.22
2023-04-17T07:36:13.036Z,102830.50
2023-04-17T07:38:14.519Z,102827.91
2023-04-17T07:40:16.921Z,102829.69
2023-04-17T07:42:18.389Z,102829.69
2023-04-17T07:44:19.936Z,102830.59
2023-04-17T07:46:21.445Z,102841.16
2023-04-17T07:48:23.378Z,102841.19
2023-04-17T07:50:25.122Z,102838.53
2023-04-17T07:52:26.710Z,102838.53
2023-04-17T07:54:28.202Z,102842.06
2023-04-17T07:56:31.830Z,102842.09
2023-04-17T07:58:35.740Z,102845.63
2023-04-17T08:00:41.991Z,102838.56
2023-04-17T08:02:43.838Z,102842.09
2023-04-17T08:04:46.516Z,102842.09
2023-04-17T08:06:48.267Z,102836.81
2023-04-17T08:08:49.984Z,102835.97
2023-04-17T08:10:51.522Z,102835.94
2023-04-17T08:12:52.969Z,102835.91
2023-04-17T08:14:54.439Z,102830.63
2023-04-17T08:16:55.931Z,102838.56
2023-04-17T08:18:57.421Z,102836.81
2023-04-17T08:20:59.063Z,102829.75
2023-04-17T08:23:00.619Z,102837.69
2023-04-17T08:25:03.121Z,102842.09
2023-04-17T08:27:05.194Z,102835.91
2023-04-17T08:29:07.385Z,102835.03
2023-04-17T08:31:10.418Z,102848.25
2023-04-17T08:33:13.535Z,102845.63
2023-04-17T08:35:15.792Z,102845.63
2023-04-17T08:37:17.241Z,102838.56
2023-04-17T08:39:19.439Z,102842.94
2023-04-17T08:41:25.551Z,102841.19
2023-04-17T08:43:29.488Z,102850.00
2023-04-17T08:45:35.454Z,102841.19
2023-04-17T08:47:39.651Z,102842.06
2023-04-17T08:49:44.100Z,102847.34
2023-04-17T08:51:46.972Z,102846.47
2023-04-17T08:53:48.432Z,102848.22
2023-04-17T08:55:50.018Z,102837.59
2023-04-17T08:57:55.368Z,102834.94
2023-04-17T08:59:56.857Z,102843.75
2023-04-17T09:02:06.777Z,102841.97
2023-04-17T09:04:08.942Z,102843.72
2023-04-17T09:06:11.492Z,102842.81
2023-04-17T09:08:20.469Z,102841.94
2023-04-17T09:10:38.128Z,102841.94
2023-04-17T09:12:41.956Z,102839.22
2023-04-17T09:14:43.653Z,102837.44
2023-04-17T09:16:54.942Z,102843.63
2023-04-17T09:19:09.711Z,102843.66
2023-04-17T09:21:11.946Z,102844.50
2023-04-17T09:23:13.413Z,102837.44
2023-04-17T09:25:19.243Z,102837.44
2023-04-17T09:27:23.876Z,102837.44
2023-04-17T09:29:25.567Z,102835.66
2023-04-17T09:31:30.436Z,102834.78
2023-04-17T09:33:32.095Z,102842.63
2023-04-17T09:35:34.480Z,102838.19
2023-04-17T09:37:50.492Z,102839.94
2023-04-17T09:40:00.037Z,102836.38
2023-04-17T09:42:03.983Z,102831.94
2023-04-17T09:44:06.273Z,102837.22
2023-04-17T09:46:07.921Z,102827.41
2023-04-17T09:48:11.612Z,102837.97
2023-04-17T09:50:16.966Z,102831.75
2023-04-17T09:52:20.774Z,102842.31
2023-04-17T09:54:23.344Z,102836.94
2023-04-17T09:56:26.510Z,102830.78
2023-04-17T09:58:27.945Z,102836.03
2023-04-17T10:00:29.819Z,102829.78
2023-04-17T10:02:32.740Z,102825.38
2023-04-17T10:04:35.326Z,102828.00
2023-04-17T10:06:37.031Z,102830.59
2023-04-17T10:08:39.092Z,102826.97
2023-04-17T10:10:40.732Z,102829.69
2023-04-17T10:12:43.315Z,102824.34
2023-04-17T10:14:48.274Z,102828.69
2023-04-17T10:16:50.584Z,102826.91
2023-04-17T10:19:27.708Z,102822.31
2023-04-17T10:21:29.295Z,102831.06
2023-04-17T10:23:33.554Z,102824.06
2023-04-17T10:25:35.377Z,102822.16
2023-04-17T10:27:36.775Z,102819.44
2023-04-17T10:29:57.583Z,102814.00
2023-04-17T10:32:11.198Z,102817.41
2023-04-17T10:34:39.584Z,102811.72
2023-04-17T10:36:42.463Z,102813.41
2023-04-17T10:38:43.999Z,102811.50
2023-04-17T10:40:45.974Z,102805.06
2023-04-17T10:43:14.857Z,102809.31
2023-04-17T10:45:19.478Z,102810.91
2023-04-17T10:47:22.470Z,102811.56
2023-04-17T10:49:24.683Z,102804.06
2023-04-17T10:51:29.141Z,102797.28
2023-04-17T10:53:37.527Z,102794.22
2023-04-17T10:55:49.327Z,102796.47
2023-04-17T10:57:54.670Z,102790.22
2023-04-17T11:00:12.346Z,102787.19
2023-04-17T11:02:14.901Z,102786.78
2023-04-17T11:04:24.645Z,102789.34
2023-04-17T11:06:33.564Z,102791.88
2023-04-17T11:08:35.270Z,102784.25
2023-04-17T11:10:37.445Z,102794.97
2023-04-17T11:12:39.331Z,102786.19
2023-04-17T11:14:43.088Z,102790.25
2023-04-17T11:16:47.633Z,102789.69
2023-04-17T11:18:49.203Z,102775.53
2023-04-17T11:20:52.335Z,102784.72
2023-04-17T11:22:53.889Z,102793.94
2023-04-17T11:24:55.425Z,102788.09
2023-04-17T11:26:59.712Z,102782.22
2023-04-17T11:29:01.908Z,102779.97
2023-04-17T11:31:04.436Z,102777.53
2023-04-17T11:33:07.946Z,102779.47
2023-04-17T11:35:10.010Z,102774.38
2023-04-17T11:37:14.570Z,102778.47
2023-04-17T11:39:16.259Z,102777.34
2023-04-17T11:41:17.816Z,102781.63
2023-04-17T11:43:21.103Z,102782.72
2023-04-17T11:45:22.710Z,102779.97
2023-04-17T11:47:24.248Z,102778.28
2023-04-17T11:49:29.355Z,102778.63
2023-04-17T11:51:31.785Z,102778.81
2023-04-17T11:53:35.286Z,102777.81
2023-04-17T11:55:36.747Z,102780.59
2023-04-17T11:57:44.076Z,102772.47
2023-04-17T11:59:46.077Z,102780.25
2023-04-17T12:01:53.505Z,102780.13
2023-04-17T12:03:59.345Z,102781.72
2023-04-17T12:06:03.177Z,102783.03
2023-04-17T12:08:07.383Z,102780.03
2023-04-17T12:10:09.170Z,102778.81
2023-04-17T12:12:11.017Z,102776.41
2023-04-17T12:14:12.861Z,102780.16
2023-04-17T12:16:14.468Z,102779.41
2023-04-17T12:18:15.993Z,102780.88
2023-04-17T12:20:17.469Z,102779.13
2023-04-17T12:22:19.378Z,102780.81
2023-04-17T12:24:22.891Z,102783.09
2023-04-17T12:26:25.683Z,102780.31
2023-04-17T12:28:27.249Z,102774.31
2023-04-17T12:30:29.392Z,102772.34
2023-04-17T12:32:31.158Z,102772.13
2023-04-17T12:34:32.731Z,102766.41
2023-04-17T12:36:34.533Z,102771.34
2023-04-17T12:38:36.148Z,102771.22
2023-04-17T12:40:42.962Z,102778.38
2023-04-17T12:42:49.066Z,102771.41
2023-04-17T12:44:51.312Z,102772.19
2023-04-17T12:46:52.793Z,102774.44
2023-04-17T12:48:58.442Z,102783.31
2023-04-17T12:50:59.966Z,102784.50
2023-04-17T12:53:01.440Z,102781.53
2023-04-17T12:55:04.520Z,102773.13
2023-04-17T12:57:06.165Z,102778.00
2023-04-17T12:59:07.879Z,102769.34
2023-04-17T13:01:09.511Z,102763.66
2023-04-17T13:03:11.905Z,102772.47
2023-04-17T13:05:13.762Z,102772.09
2023-04-17T13:07:15.357Z,102767.28
2023-04-17T13:09:17.961Z,102765.81
2023-04-17T13:11:19.495Z,102765.41
2023-04-17T13:13:20.933Z,102760.94
2023-04-17T13:15:22.529Z,102759.19
2023-04-17T13:17:25.142Z,102761.81
2023-04-17T13:19:26.627Z,102759.13
2023-04-17T13:21:28.201Z,102759.00
2023-04-17T13:23:29.692Z,102765.03
2023-04-17T13:25:31.851Z,102761.09
2023-04-17T13:27:33.371Z,102753.81
2023-04-17T13:29:34.895Z,102758.91
2023-04-17T13:31:37.053Z,102760.59
2023-04-17T13:33:40.282Z,102763.59
2023-04-17T13:35:42.168Z,102753.22
2023-04-17T13:37:43.646Z,102758.75
2023-04-17T13:39:45.118Z,102750.00
2023-04-17T13:41:46.951Z,102757.88
2023-04-17T13:43:48.425Z,102746.34
2023-04-17T13:45:52.267Z,102738.91
2023-04-17T13:47:55.054Z,102750.81
2023-04-17T13:49:56.559Z,102743.25
2023-04-17T13:51:58.091Z,102741.50
2023-04-17T13:53:59.676Z,102728.13
2023-04-17T13:56:01.259Z,102730.78
2023-04-17T13:58:02.965Z,102740.91
2023-04-17T14:00:04.878Z,102736.66
2023-04-17T14:02:06.944Z,102723.44
2023-04-17T14:04:09.502Z,102727.69
2023-04-17T14:06:11.570Z,102729.13
2023-04-17T14:08:13.047Z,102728.09
2023-04-17T14:10:14.563Z,102726.59
2023-04-17T14:12:20.605Z,102715.78
2023-04-17T14:14:22.465Z,102712.94
2023-04-17T14:16:24.086Z,102706.00
2023-04-17T14:18:25.619Z,102718.06
2023-04-17T14:20:27.165Z,102717.00
2023-04-17T14:22:28.640Z,102721.41
2023-04-17T14:24:30.229Z,102715.69
2023-04-17T14:26:31.792Z,102711.25
2023-04-17T14:28:33.399Z,102721.78
2023-04-17T14:30:34.908Z,102719.03
2023-04-17T14:32:38.410Z,102711.84
2023-04-17T14:34:40.074Z,102713.69
2023-04-17T14:36:43.027Z,102712.72
2023-04-17T14:38:48.910Z,102705.41
2023-04-17T14:40:50.813Z,102704.31
2023-04-17T14:42:54.661Z,102707.63
2023-04-17T14:44:56.407Z,102694.78
2023-04-17T14:46:58.174Z,102699.28
2023-04-17T14:48:59.797Z,102710.91
2023-04-17T14:51:01.608Z,102695.22
2023-04-17T14:53:04.553Z,102698.09
2023-04-17T14:55:06.264Z,102691.81
2023-04-17T14:57:08.466Z,102699.47
2023-04-17T14:59:10.031Z,102693.19
2023-04-17T15:01:11.619Z,102699.59
2023-04-17T15:03:13.244Z,102695.94
2023-04-17T15:05:18.801Z,102696.69
2023-04-17T15:07:20.742Z,102701.34
2023-04-17T15:09:22.207Z,102700.06
2023-04-17T15:11:23.780Z,102704.22
2023-04-17T15:13:25.347Z,102713.44
2023-04-17T15:15:28.543Z,102706.19
2023-04-17T15:17:30.227Z,102710.91
2023-04-17T15:19:31.731Z,102713.00
2023-04-17T15:21:33.254Z,102707.22
2023-04-17T15:23:35.487Z,102710.28
2023-04-17T15:25:37.190Z,102710.09
2023-04-17T15:27:38.644Z,102709.25
2023-04-17T15:29:40.347Z,102712.09
2023-04-17T15:31:42.061Z,102712.31
2023-04-17T15:33:45.598Z,102718.38
2023-04-17T15:35:47.300Z,102711.38
2023-04-17T15:37:48.857Z,102713.28
2023-04-17T15:39:50.629Z,102728.50
2023-04-17T15:41:52.260Z,102732.25
2023-04-17T15:43:53.723Z,102718.44
2023-04-17T15:45:55.648Z,102720.00
2023-04-17T15:47:58.130Z,102732.84
2023-04-17T15:49:59.721Z,102721.66
2023-04-17T15:52:01.309Z,102730.41
2023-04-17T15:54:03.165Z,102725.06
2023-04-17T15:56:06.815Z,102726.84
2023-04-17T15:58:08.442Z,102727.00
2023-04-17T16:00:10.689Z,102728.06
2023-04-17T16:02:13.626Z,102736.28
2023-04-17T16:04:15.321Z,102743.47
2023-04-17T16:06:16.902Z,102739.81
2023-04-17T16:08:18.356Z,102738.75
2023-04-17T16:10:19.984Z,102737.88
2023-04-17T16:12:21.481Z,102733.69
2023-04-17T16:14:22.962Z,102737.38
2023-04-17T16:16:24.439Z,102745.56
2023-04-17T16:18:26.001Z,102739.97
2023-04-17T16:20:27.449Z,102754.47
2023-04-17T16:22:28.949Z,102750.03
2023-04-17T16:24:30.462Z,102746.59
2023-04-17T16:26:32.049Z,102753.84
2023-04-17T16:28:34.413Z,102746.09
2023-04-17T16:30:36.004Z,102750.91
2023-04-17T16:32:37.601Z,102753.91
2023-04-17T16:34:39.181Z,102755.72
2023-04-17T16:36:45.189Z,102753.84
2023-04-17T16:38:47.204Z,102762.13
2023-04-17T16:40:48.692Z,102765.94
2023-04-17T16:42:50.441Z,102771.44
2023-04-17T16:44:52.001Z,102772.53
2023-04-17T16:48:59.674Z,102775.59
2023-04-17T16:51:07.439Z,102773.00
2023-04-17T16:53:09.291Z,102773.25
2023-04-17T16:55:10.856Z,102781.34
2023-04-17T16:57:12.350Z,102774.25
2023-04-17T16:59:14.286Z,102776.22
2023-04-17T17:01:15.995Z,102780.75
2023-04-17T17:03:18.316Z,102777.22
2023-04-17T17:05:20.003Z,102779.19
2023-04-17T17:07:21.455Z,102780.34
2023-04-17T17:09:22.978Z,102778.88
2023-04-17T17:11:24.521Z,102786.03
2023-04-17T17:13:26.368Z,102787.06
2023-04-17T17:15:27.890Z,102796.03
2023-04-17T17:17:30.035Z,102789.13
2023-04-17T17:19:31.629Z,102798.88
2023-04-17T17:21:33.191Z,102793.56
2023-04-17T17:23:34.881Z,102799.88
2023-04-17T17:25:36.362Z,102805.28
2023-04-17T17:27:37.884Z,102813.41
2023-04-17T17:29:39.691Z,102820.78
2023-04-17T17:31:41.244Z,102822.66
2023-04-17T17:33:42.776Z,102819.16
2023-04-17T17:35:44.249Z,102821.06
2023-04-17T17:37:45.799Z,102818.53
2023-04-17T17:39:47.255Z,102825.81
2023-04-17T17:41:48.761Z,102830.44
2023-04-17T17:43:50.362Z,102837.66
2023-04-17T17:45:52.387Z,102834.28
2023-04-17T17:47:54.029Z,102834.41
2023-04-17T17:49:55.719Z,102841.59
2023-04-17T17:51:57.166Z,102841.69
2023-04-17T17:53:58.639Z,102839.09
2023-04-17T17:56:00.122Z,102851.63
2023-04-17T17:58:01.645Z,102852.59
2023-04-17T18:00:03.513Z,102842.97
2023-04-17T18:02:05.157Z,102852.81
2023-04-17T18:04:06.952Z,102855.50
2023-04-17T18:06:09.211Z,102853.81
2023-04-17T18:08:10.760Z,102851.19
2023-04-17T18:10:12.359Z,102852.97
2023-04-17T18:12:13.805Z,102856.59
2023-04-17T18:14:15.274Z,102855.75
2023-04-17T18:16:17.067Z,102854.03
2023-04-17T18:18:18.557Z,102855.81
2023-04-17T18:20:20.143Z,102855.84
2023-04-17T18:22:21.628Z,102855.91
2023-04-17T18:24:23.162Z,102864.78
2023-04-17T18:26:24.665Z,102855.09
2023-04-17T18:28:27.015Z,102863.09
2023-04-17T18:30:28.708Z,102866.66
2023-04-17T18:32:31.587Z,102864.91
2023-04-17T18:34:33.091Z,102863.16
2023-04-17T18:36:34.599Z,102866.72
2023-04-17T18:38:36.111Z,102869.38
2023-04-17T18:40:37.853Z,102883.53
2023-04-17T18:42:39.302Z,102887.09
2023-04-17T18:44:41.806Z,102884.44
2023-04-17T18:46:43.278Z,102888.84
2023-04-17T18:48:44.852Z,102891.50
2023-04-17T18:50:46.333Z,102895.03
2023-04-17T18:52:50.452Z,102886.22
2023-04-17T18:54:52.769Z,102899.47
2023-04-17T18:56:54.302Z,102886.22
2023-04-17T18:58:55.765Z,102896.75
2023-04-17T19:00:57.278Z,102895.88
2023-04-17T19:02:58.777Z,102895.00
2023-04-17T19:05:00.494Z,102898.53
2023-04-17T19:07:02.766Z,102896.75
2023-04-17T19:09:04.310Z,102900.28
2023-04-17T19:19:05.679Z,102900.19
2023-04-17T19:21:07.328Z,102901.03
2023-04-17T19:23:10.150Z,102897.50
2023-04-17T19:25:11.791Z,102903.66
2023-04-17T19:27:13.562Z,102903.66
2023-04-17T19:29:17.122Z,102903.59
2023-04-17T19:31:18.662Z,102905.34
2023-04-17T19:33:20.450Z,102900.94
2023-04-17T19:35:21.956Z,102911.50
2023-04-17T19:37:23.419Z,102916.75
2023-04-17T19:39:27.309Z,102913.22
2023-04-17T19:41:28.860Z,102914.97
2023-04-17T19:43:30.314Z,102914.94
2023-04-17T19:45:33.282Z,102914.97
2023-04-17T19:47:34.861Z,102916.66
2023-04-17T19:49:36.645Z,102920.19
2023-04-17T19:51:38.724Z,102921.06
2023-04-17T19:53:42.336Z,102919.25
2023-04-17T19:55:43.798Z,102924.50
2023-04-17T19:57:45.382Z,102923.63
2023-04-17T19:59:46.868Z,102918.31
2023-04-17T20:01:48.802Z,102923.56
2023-04-17T20:03:51.372Z,102930.59
2023-04-17T20:05:53.914Z,102926.13
2023-04-17T20:07:55.459Z,102926.09
2023-04-17T20:09:56.987Z,102927.81
2023-04-17T20:11:58.531Z,102924.28
2023-04-17T20:14:00.030Z,102925.13
2023-04-17T20:16:01.721Z,102928.56
2023-04-17T20:18:05.469Z,102928.56
2023-04-17T20:20:07.551Z,102920.63
2023-04-17T20:22:09.017Z,102921.47
2023-04-17T20:24:10.629Z,102925.88
2023-04-17T20:26:12.087Z,102926.72
2023-04-17T20:28:13.574Z,102932.00
2023-04-17T20:30:15.436Z,102927.56
2023-04-17T20:32:17.881Z,102926.63
2023-04-17T20:34:19.465Z,102932.72
2023-04-17T20:36:21.081Z,102932.72
2023-04-17T20:38:22.680Z,102935.31
2023-04-17T20:40:24.207Z,102936.09
2023-04-17T20:42:25.728Z,102930.78
2023-04-17T20:44:27.181Z,102936.00
2023-04-17T20:46:29.393Z,102941.28
2023-04-17T20:48:31.017Z,102942.13
2023-04-17T20:50:32.534Z,102937.66
2023-04-17T20:52:34.234Z,102939.41
2023-04-17T20:54:35.858Z,102939.34
2023-04-17T20:56:37.325Z,102942.88
2023-04-17T20:58:38.827Z,102935.78
2023-04-17T21:00:53.974Z,102941.91
2023-04-17T21:03:02.031Z,102937.47
2023-04-17T21:05:04.053Z,102943.47
2023-04-17T21:07:05.565Z,102940.81
2023-04-17T21:09:08.655Z,102943.44
2023-04-17T21:11:10.192Z,102941.63
2023-04-17T21:13:11.639Z,102942.47
2023-04-17T21:15:13.284Z,102945.91
2023-04-17T21:17:14.859Z,102936.19
2023-04-17T21:19:16.373Z,102934.44
2023-04-17T21:21:17.891Z,102943.19
2023-04-17T21:23:19.422Z,102938.72
2023-04-17T21:25:21.497Z,102940.50
2023-04-17T21:27:23.107Z,102938.66
2023-04-17T21:29:28.440Z,102938.59
2023-04-17T21:31:31.300Z,102942.94
2023-04-17T21:33:32.761Z,102939.31
2023-04-17T21:35:35.532Z,102944.63
2023-04-17T21:37:37.079Z,102945.47
2023-04-17T21:39:38.512Z,102942.81
2023-04-17T21:41:39.971Z,102942.78
2023-04-17T21:43:41.403Z,102941.06
2023-04-17T21:45:42.896Z,102941.97
2023-04-17T21:47:44.458Z,102937.53
2023-04-17T21:49:47.406Z,102947.22
2023-04-17T21:51:48.892Z,102943.66
2023-04-17T21:53:50.424Z,102944.56
2023-04-17T21:55:51.884Z,102938.41
2023-04-17T21:57:53.446Z,102946.28
2023-04-17T21:59:54.905Z,102943.63
2023-04-17T22:01:56.597Z,102942.75
2023-04-17T22:03:58.104Z,102952.38
2023-04-17T22:06:00.129Z,102948.88
2023-04-17T22:08:01.687Z,102950.63
2023-04-17T22:10:03.326Z,102956.72
2023-04-17T22:12:12.239Z,102958.47
2023-04-17T22:14:14.252Z,102961.09
2023-04-17T22:16:16.005Z,102955.88
2023-04-17T22:18:17.643Z,102960.22
2023-04-17T22:20:19.892Z,102958.47
2023-04-17T22:22:21.682Z,102957.56
2023-04-17T22:24:23.139Z,102952.31
2023-04-17T22:26:26.813Z,102954.94
2023-04-17T22:28:31.357Z,102962.81
2023-04-17T22:30:32.880Z,102963.66
2023-04-17T22:32:34.483Z,102954.00
2023-04-17T22:34:36.019Z,102959.22
2023-04-17T22:36:37.503Z,102960.03
2023-04-17T22:38:38.943Z,102957.47
2023-04-17T22:40:41.332Z,102960.97
2023-04-17T22:42:42.997Z,102963.59
2023-04-17T22:44:44.563Z,102967.09
2023-04-17T22:46:46.109Z,102960.09
2023-04-17T22:48:49.553Z,102958.31
2023-04-17T22:50:51.040Z,102963.59
2023-04-17T22:52:55.544Z,102965.34
2023-04-17T22:54:57.212Z,102968.78
2023-04-17T22:56:58.911Z,102964.38
2023-04-17T22:59:00.428Z,102964.31
2023-04-17T23:01:01.929Z,102964.31
2023-04-17T23:03:03.625Z,102963.44
2023-04-17T23:05:06.353Z,102967.84
2023-04-17T23:07:07.962Z,102968.69
2023-04-17T23:09:09.430Z,102970.44
2023-04-17T23:11:11.021Z,102973.00
2023-04-17T23:13:12.594Z,102971.19
2023-04-17T23:15:14.361Z,102977.31
2023-04-17T23:17:15.828Z,102973.75
2023-04-17T23:19:18.337Z,102976.34
2023-04-17T23:21:19.964Z,102976.31
2023-04-17T23:23:21.574Z,102979.78
2023-04-17T23:25:23.060Z,102981.56
2023-04-17T23:27:24.602Z,102974.53